Campo Alto, Texas
Current Conditions -  °F | °C
As of 5:53 AM on Wednesday 28 Jan 2015 (Local Time) from KMFE Reporting Station
Clear Clear  
Wind Chill: 51°   Ceiling: Unl
Heat Index: 51°   Visibility: 10mi
Dew Point: 50°   Wind: 6mph
Humidity: 96%   Direction: 120°ESE
Pressure: 30.15"   Gusts: NA
Location:  26.2003°N, 98.1112°W
Report Text: KMFE 281153Z 12005KT 10SM CLR 11/10 A3015 RMK AO2 SLP207 T01060100 10122 20100 55000
Loading
Personal Weather Stations






























Interactive Weather Map New forecast layout! Learn more

10-Day Weather Forecast

Advertisements
Track Severe Weather on mobile